createdAt,value
2022-11-28T00:01:37.926Z,1.25
2022-11-28T00:06:32.090Z,1.20
2022-11-28T00:08:59.928Z,1.40
2022-11-28T00:11:27.404Z,1.60
2022-11-28T00:13:54.903Z,1.30
2022-11-28T00:16:22.869Z,1.40
2022-11-28T00:18:50.854Z,1.40
2022-11-28T00:21:18.887Z,1.45
2022-11-28T00:23:46.800Z,1.48
2022-11-28T00:26:15.915Z,1.50
2022-11-28T00:28:43.017Z,1.58
2022-11-28T00:31:14.060Z,1.33
2022-11-28T00:33:41.989Z,1.30
2022-11-28T00:36:09.262Z,1.60
2022-11-28T00:38:36.361Z,1.10
2022-11-28T00:41:05.492Z,1.20
2022-11-28T00:43:32.743Z,1.40
2022-11-28T00:46:00.131Z,1.65
2022-11-28T00:48:27.623Z,1.30
2022-11-28T00:50:55.034Z,1.50
2022-11-28T00:53:22.462Z,1.20
2022-11-28T00:55:49.561Z,1.50
2022-11-28T00:58:16.633Z,1.48
2022-11-28T01:00:43.913Z,1.58
2022-11-28T01:03:11.090Z,1.38
2022-11-28T01:05:41.950Z,1.33
2022-11-28T01:08:09.101Z,1.00
2022-11-28T01:10:39.664Z,1.30
2022-11-28T01:13:06.865Z,1.33
2022-11-28T01:15:33.936Z,1.35
2022-11-28T01:18:02.625Z,1.50
2022-11-28T01:20:29.881Z,1.40
2022-11-28T01:22:56.989Z,1.20
2022-11-28T01:25:24.215Z,1.20
2022-11-28T01:27:52.391Z,1.90
2022-11-28T01:30:19.688Z,1.60
2022-11-28T01:32:47.114Z,1.30
2022-11-28T01:35:14.180Z,1.23
2022-11-28T01:37:41.309Z,1.10
2022-11-28T01:40:08.705Z,1.25
2022-11-28T01:42:35.829Z,1.17
2022-11-28T01:45:07.610Z,1.20
2022-11-28T01:47:35.791Z,1.25
2022-11-28T01:50:03.926Z,1.40
2022-11-28T01:52:31.063Z,1.20
2022-11-28T01:54:59.900Z,1.35
2022-11-28T01:57:27.544Z,1.27
2022-11-28T01:59:57.101Z,1.20
2022-11-28T02:02:27.606Z,1.20
2022-11-28T02:04:55.293Z,1.27
2022-11-28T02:07:22.413Z,1.10
2022-11-28T02:09:49.549Z,1.27
2022-11-28T02:12:19.530Z,1.20
2022-11-28T02:15:01.690Z,1.30
2022-11-28T02:17:31.570Z,1.10
2022-11-28T02:20:17.184Z,1.27
2022-11-28T02:23:03.127Z,1.20
2022-11-28T02:25:45.644Z,1.13
2022-11-28T02:28:12.724Z,1.02
2022-11-28T02:30:39.825Z,1.17
2022-11-28T02:33:42.223Z,1.10
2022-11-28T02:36:09.287Z,1.35
2022-11-28T02:38:56.679Z,1.20
2022-11-28T02:41:36.412Z,1.55
2022-11-28T02:44:09.723Z,1.05
2022-11-28T02:46:57.755Z,1.40
2022-11-28T02:49:30.335Z,1.13
2022-11-28T02:52:00.501Z,0.95
2022-11-28T02:54:28.187Z,1.02
2022-11-28T02:56:55.612Z,0.98
2022-11-28T02:59:37.446Z,1.10
2022-11-28T03:02:05.668Z,1.30
2022-11-28T03:04:32.859Z,1.10
2022-11-28T03:07:14.548Z,1.00
2022-11-28T03:09:44.747Z,1.10
2022-11-28T03:12:24.763Z,0.90
2022-11-28T03:14:54.176Z,1.25
2022-11-28T03:17:25.569Z,1.00
2022-11-28T03:19:58.973Z,1.02
2022-11-28T03:22:34.998Z,1.10
2022-11-28T03:25:20.621Z,0.82
2022-11-28T03:27:50.013Z,1.08
2022-11-28T03:30:19.567Z,1.02
2022-11-28T03:32:48.216Z,1.15
2022-11-28T03:35:20.122Z,1.10
2022-11-28T03:37:50.138Z,0.90
2022-11-28T03:40:20.512Z,1.08
2022-11-28T03:42:50.421Z,1.40
2022-11-28T03:45:25.125Z,1.13
2022-11-28T03:47:58.023Z,0.90
2022-11-28T03:50:32.668Z,1.30
2022-11-28T03:53:03.100Z,0.93
2022-11-28T03:55:34.089Z,0.98
2022-11-28T03:58:06.592Z,0.90
2022-11-28T04:00:36.178Z,1.08
2022-11-28T04:03:12.038Z,0.90
2022-11-28T04:05:45.540Z,1.15
2022-11-28T04:08:25.031Z,1.20
2022-11-28T04:10:57.888Z,1.25
2022-11-28T04:13:37.557Z,1.17
2022-11-28T04:16:07.472Z,0.73
2022-11-28T04:18:52.782Z,1.02
2022-11-28T04:21:30.690Z,1.00
2022-11-28T04:24:02.022Z,0.98
2022-11-28T04:26:31.939Z,1.27
2022-11-28T04:29:00.282Z,1.15
2022-11-28T04:31:27.564Z,1.10
2022-11-28T04:33:59.084Z,1.00
2022-11-28T04:36:27.623Z,0.80
2022-11-28T04:38:56.602Z,0.98
2022-11-28T04:41:35.875Z,1.10
2022-11-28T04:44:17.569Z,0.88
2022-11-28T04:46:47.313Z,1.13
2022-11-28T04:49:14.712Z,1.45
2022-11-28T04:51:54.976Z,1.48
2022-11-28T04:54:40.317Z,1.40
2022-11-28T04:57:16.386Z,1.20
2022-11-28T04:59:43.899Z,1.02
2022-11-28T05:02:12.259Z,1.17
2022-11-28T05:04:39.570Z,1.27
2022-11-28T05:07:08.464Z,1.08
2022-11-28T05:09:35.981Z,1.20
2022-11-28T05:12:03.560Z,1.00
2022-11-28T05:14:30.764Z,1.13
2022-11-28T05:16:57.910Z,1.20
2022-11-28T05:19:25.070Z,0.88
2022-11-28T05:21:53.491Z,1.23
2022-11-28T05:24:22.471Z,1.00
2022-11-28T05:26:49.802Z,1.08
2022-11-28T05:29:17.013Z,1.08
2022-11-28T05:31:44.195Z,1.08
2022-11-28T05:34:11.355Z,1.23
2022-11-28T05:36:38.583Z,0.98
2022-11-28T05:39:05.714Z,0.95
2022-11-28T05:41:34.225Z,1.30
2022-11-28T05:44:01.736Z,1.27
2022-11-28T05:46:29.141Z,1.00
2022-11-28T05:48:56.790Z,1.00
2022-11-28T05:51:24.254Z,1.00
2022-11-28T05:53:51.598Z,0.90
2022-11-28T05:56:20.244Z,1.23
2022-11-28T05:58:47.424Z,1.60
2022-11-28T06:01:14.608Z,1.20
2022-11-28T06:03:42.401Z,1.20
2022-11-28T06:06:12.069Z,1.10
2022-11-28T06:08:39.145Z,1.20
2022-11-28T06:11:06.458Z,1.27
2022-11-28T06:13:33.607Z,1.23
2022-11-28T06:16:00.741Z,1.10
2022-11-28T06:18:28.041Z,1.25
2022-11-28T06:20:55.606Z,1.00
2022-11-28T06:23:22.785Z,1.02
2022-11-28T06:25:50.041Z,1.02
2022-11-28T06:28:17.097Z,1.15
2022-11-28T06:30:44.642Z,0.98
2022-11-28T06:33:11.766Z,1.13
2022-11-28T06:35:38.878Z,1.10
2022-11-28T06:38:09.049Z,1.52
2022-11-28T06:40:40.452Z,1.27
2022-11-28T06:43:07.570Z,1.25
2022-11-28T06:45:35.391Z,1.25
2022-11-28T06:48:02.506Z,1.30
2022-11-28T06:50:29.877Z,1.40
2022-11-28T06:52:57.129Z,1.10
2022-11-28T06:55:25.252Z,1.20
2022-11-28T06:57:52.510Z,1.30
2022-11-28T07:00:19.767Z,1.40
2022-11-28T07:02:47.000Z,1.20
2022-11-28T07:05:16.513Z,1.20
2022-11-28T07:07:53.778Z,1.55
2022-11-28T07:10:21.393Z,1.40
2022-11-28T07:12:48.530Z,1.30
2022-11-28T07:15:15.647Z,1.38
2022-11-28T07:17:42.746Z,1.23
2022-11-28T07:20:11.627Z,1.40
2022-11-28T07:22:38.821Z,1.23
2022-11-28T07:25:11.703Z,1.35
2022-11-28T07:27:38.900Z,1.90
2022-11-28T07:30:06.312Z,1.40
2022-11-28T07:32:33.404Z,1.75
2022-11-28T07:35:00.497Z,1.30
2022-11-28T07:37:27.576Z,1.55
2022-11-28T07:39:54.658Z,1.50
2022-11-28T07:42:21.739Z,1.58
2022-11-28T07:44:49.063Z,1.50
2022-11-28T07:47:16.161Z,1.75
2022-11-28T07:49:43.554Z,1.63
2022-11-28T07:52:11.190Z,1.75
2022-11-28T07:54:38.281Z,1.55
2022-11-28T07:57:12.248Z,1.70
2022-11-28T07:59:40.365Z,1.67
2022-11-28T08:02:07.799Z,1.70
2022-11-28T08:04:35.210Z,2.17
2022-11-28T08:07:02.359Z,1.55
2022-11-28T08:09:29.699Z,1.80
2022-11-28T08:11:56.807Z,1.85
2022-11-28T08:14:24.076Z,1.95
2022-11-28T08:16:51.472Z,1.88
2022-11-28T08:19:23.020Z,1.92
2022-11-28T08:21:52.127Z,1.90
2022-11-28T08:24:19.231Z,1.98
2022-11-28T08:26:46.363Z,2.00
2022-11-28T08:29:13.489Z,2.03
2022-11-28T08:31:40.675Z,2.20
2022-11-28T08:34:09.625Z,2.17
2022-11-28T08:36:37.350Z,2.20
2022-11-28T08:41:53.260Z,2.67
2022-11-28T08:44:20.515Z,2.20
2022-11-28T08:46:47.589Z,2.20
2022-11-28T08:49:14.708Z,2.03
2022-11-28T08:51:41.853Z,2.38
2022-11-28T08:54:09.128Z,2.38
2022-11-28T08:56:36.438Z,2.00
2022-11-28T08:59:04.110Z,2.50
2022-11-28T09:01:31.384Z,2.60
2022-11-28T09:03:58.542Z,2.00
2022-11-28T09:06:25.804Z,2.40
2022-11-28T09:08:53.942Z,2.38
2022-11-28T09:11:22.158Z,2.53
2022-11-28T09:13:49.471Z,2.40
2022-11-28T09:16:16.950Z,2.45
2022-11-28T09:18:44.231Z,2.78
2022-11-28T09:21:12.760Z,2.38
2022-11-28T09:23:41.272Z,2.22
2022-11-28T09:26:12.147Z,2.20
2022-11-28T09:28:39.362Z,2.78
2022-11-28T09:31:06.982Z,2.00
2022-11-28T09:33:34.372Z,2.45
2022-11-28T09:36:08.228Z,2.55
2022-11-28T09:38:35.506Z,2.22
2022-11-28T09:41:03.323Z,2.85
2022-11-28T09:43:32.578Z,2.60
2022-11-28T09:46:01.225Z,2.75
2022-11-28T09:48:35.648Z,2.50
2022-11-28T09:51:24.122Z,2.35
2022-11-28T09:53:57.290Z,2.65
2022-11-28T09:56:24.575Z,2.78
2022-11-28T09:58:57.907Z,2.78
2022-11-28T10:01:27.753Z,3.17
2022-11-28T10:03:59.009Z,2.72
2022-11-28T10:06:29.695Z,2.65
2022-11-28T10:09:05.815Z,2.83
2022-11-28T10:11:33.306Z,2.90
2022-11-28T10:14:12.651Z,2.63
2022-11-28T10:16:48.688Z,3.15
2022-11-28T10:19:46.531Z,2.97
2022-11-28T10:24:42.055Z,2.63
2022-11-28T10:27:13.162Z,2.78
2022-11-28T10:29:46.163Z,2.95
2022-11-28T10:32:15.964Z,2.30
2022-11-28T10:34:45.435Z,3.20
2022-11-28T10:37:16.910Z,2.53
2022-11-28T10:39:45.982Z,2.58
2022-11-28T10:42:33.417Z,2.50
2022-11-28T10:47:30.409Z,2.70
2022-11-28T10:50:07.677Z,3.08
2022-11-28T10:52:44.189Z,3.00
2022-11-28T10:55:14.198Z,2.78
2022-11-28T10:57:48.412Z,2.95
2022-11-28T11:00:18.254Z,3.13
2022-11-28T11:02:47.233Z,3.10
2022-11-28T11:07:44.493Z,2.90
2022-11-28T11:10:19.484Z,2.85
2022-11-28T11:12:47.221Z,3.25
2022-11-28T11:15:17.248Z,3.20
2022-11-28T11:17:44.377Z,3.40
2022-11-28T11:20:27.196Z,3.20
2022-11-28T11:22:55.927Z,3.33
2022-11-28T11:25:23.884Z,2.90
2022-11-28T11:27:52.280Z,3.40
2022-11-28T11:30:19.514Z,3.15
2022-11-28T11:32:51.414Z,3.60
2022-11-28T11:35:22.863Z,3.38
2022-11-28T11:37:50.121Z,3.35
2022-11-28T11:40:20.559Z,3.20
2022-11-28T11:42:52.894Z,3.45
2022-11-28T11:45:26.406Z,3.20
2022-11-28T11:47:53.492Z,3.38
2022-11-28T11:50:22.310Z,3.13
2022-11-28T11:53:12.418Z,2.97
2022-11-28T11:55:48.858Z,3.47
2022-11-28T11:58:19.194Z,3.08
2022-11-28T12:00:46.980Z,3.28
2022-11-28T12:03:26.365Z,3.55
2022-11-28T12:06:15.236Z,3.03
2022-11-28T12:08:52.990Z,3.35
2022-11-28T12:11:26.020Z,3.53
2022-11-28T12:13:53.507Z,3.20
2022-11-28T12:16:39.524Z,3.05
2022-11-28T12:19:32.684Z,2.88
2022-11-28T12:21:59.779Z,3.63
2022-11-28T12:24:34.238Z,3.20
2022-11-28T12:27:11.466Z,3.30
2022-11-28T12:29:58.798Z,3.60
2022-11-28T12:32:26.002Z,3.70
2022-11-28T12:34:53.083Z,3.60
2022-11-28T12:38:08.998Z,3.00
2022-11-28T12:40:36.782Z,3.53
2022-11-28T12:43:09.914Z,3.40
2022-11-28T12:45:46.078Z,3.03
2022-11-28T12:48:27.945Z,3.25
2022-11-28T12:51:02.026Z,2.97
2022-11-28T12:53:38.234Z,3.22
2022-11-28T12:56:24.040Z,3.38
2022-11-28T12:59:04.835Z,3.67
2022-11-28T13:01:34.887Z,3.47
2022-11-28T13:04:17.267Z,3.22
2022-11-28T13:06:52.936Z,3.33
2022-11-28T13:09:49.386Z,3.42
2022-11-28T13:12:35.076Z,3.40
2022-11-28T13:15:05.795Z,3.55
2022-11-28T13:17:38.672Z,2.80
2022-11-28T13:20:18.043Z,3.22
2022-11-28T13:22:54.379Z,3.15
2022-11-28T13:25:36.501Z,3.35
2022-11-28T13:28:06.552Z,3.10
2022-11-28T13:30:37.320Z,3.38
2022-11-28T13:33:22.842Z,3.65
2022-11-28T13:35:50.069Z,3.40
2022-11-28T13:41:28.766Z,3.53
2022-11-28T13:44:28.810Z,3.60
2022-11-28T13:46:56.765Z,3.28
2022-11-28T13:49:29.595Z,3.05
2022-11-28T13:52:15.636Z,3.45
2022-11-28T13:54:44.812Z,3.35
2022-11-28T13:57:19.052Z,3.22
2022-11-28T13:59:57.729Z,2.83
2022-11-28T14:02:35.115Z,3.30
2022-11-28T14:05:03.299Z,3.80
2022-11-28T14:07:31.650Z,3.28
2022-11-28T14:09:58.831Z,3.28
2022-11-28T14:12:44.483Z,3.65
2022-11-28T14:15:38.385Z,3.10
2022-11-28T14:18:47.937Z,3.08
2022-11-28T14:21:25.670Z,2.90
2022-11-28T14:26:25.503Z,3.08
2022-11-28T14:28:55.609Z,2.75
2022-11-28T14:31:30.452Z,3.17
2022-11-28T14:34:04.048Z,3.17
2022-11-28T14:36:34.169Z,3.67
2022-11-28T14:39:04.389Z,2.83
2022-11-28T14:41:31.746Z,3.30
2022-11-28T14:44:28.380Z,3.10
2022-11-28T14:47:15.226Z,3.42
2022-11-28T14:49:45.531Z,3.28
2022-11-28T14:55:14.472Z,2.75
2022-11-28T14:57:55.149Z,2.75
2022-11-28T15:00:31.366Z,2.72
2022-11-28T15:03:27.339Z,2.72
2022-11-28T15:06:13.891Z,2.65
2022-11-28T15:08:41.622Z,3.10
2022-11-28T15:11:11.778Z,3.00
2022-11-28T15:13:52.555Z,2.85
2022-11-28T15:16:24.106Z,2.85
2022-11-28T15:19:14.375Z,2.72
2022-11-28T15:21:51.587Z,2.90
2022-11-28T15:24:28.149Z,3.45
2022-11-28T15:26:57.754Z,3.03
2022-11-28T15:29:34.000Z,2.78
2022-11-28T15:32:01.380Z,2.83
2022-11-28T15:34:35.580Z,2.60
2022-11-28T15:37:17.251Z,3.50
2022-11-28T15:39:46.677Z,2.70
2022-11-28T15:42:33.433Z,2.90
2022-11-28T15:45:04.237Z,2.70
2022-11-28T15:47:31.899Z,2.65
2022-11-28T15:50:05.538Z,2.60
2022-11-28T15:52:32.673Z,2.85
2022-11-28T15:54:59.902Z,2.70
2022-11-28T15:57:28.499Z,3.17
2022-11-28T15:59:56.785Z,2.53
2022-11-28T16:02:32.519Z,2.35
2022-11-28T16:05:10.034Z,2.63
2022-11-28T16:07:41.589Z,2.22
2022-11-28T16:10:17.953Z,2.42
2022-11-28T16:12:45.447Z,2.60
2022-11-28T16:15:20.531Z,2.50
2022-11-28T16:17:47.979Z,2.78
2022-11-28T16:20:22.129Z,2.42
2022-11-28T16:22:54.542Z,3.03
2022-11-28T16:25:23.538Z,3.13
2022-11-28T16:30:27.162Z,2.45
2022-11-28T16:32:55.547Z,2.53
2022-11-28T16:35:30.882Z,2.38
2022-11-28T16:38:07.222Z,2.60
2022-11-28T16:40:34.485Z,2.70
2022-11-28T16:43:04.873Z,2.75
2022-11-28T16:45:33.957Z,2.90
2022-11-28T16:48:01.054Z,2.80
2022-11-28T16:50:28.474Z,2.70
2022-11-28T16:52:57.672Z,2.40
2022-11-28T16:55:27.821Z,2.60
2022-11-28T16:57:55.792Z,2.92
2022-11-28T17:00:27.762Z,3.92
2022-11-28T17:02:55.549Z,4.55
2022-11-28T17:05:22.625Z,5.85
2022-11-28T17:07:49.843Z,7.95
2022-11-28T17:10:18.122Z,8.55
2022-11-28T17:12:45.429Z,9.63
2022-11-28T17:15:17.072Z,11.18
2022-11-28T17:17:44.178Z,10.57
2022-11-28T17:20:12.866Z,10.10
2022-11-28T17:22:44.272Z,11.40
2022-11-28T17:25:19.109Z,11.43
2022-11-28T17:27:47.803Z,11.45
2022-11-28T17:30:19.212Z,12.20
2022-11-28T17:32:53.121Z,12.80
2022-11-28T17:35:24.586Z,11.40
2022-11-28T17:37:51.672Z,11.73
2022-11-28T17:40:38.649Z,13.68
2022-11-28T17:43:05.843Z,11.10
2022-11-28T17:45:34.975Z,11.40
2022-11-28T17:48:02.151Z,11.27
2022-11-28T17:50:29.358Z,12.00
2022-11-28T17:52:56.502Z,11.25
2022-11-28T17:55:28.836Z,12.15
2022-11-28T17:57:55.912Z,11.95
2022-11-28T18:00:23.185Z,12.05
2022-11-28T18:02:50.453Z,11.85
2022-11-28T18:05:17.590Z,10.63
2022-11-28T18:07:44.752Z,11.15
2022-11-28T18:10:12.069Z,11.70
2022-11-28T18:12:41.406Z,10.45
2022-11-28T18:15:10.798Z,10.45
2022-11-28T18:17:38.231Z,10.18
2022-11-28T18:20:05.861Z,11.07
2022-11-28T18:22:35.331Z,10.93
2022-11-28T18:25:02.714Z,10.27
2022-11-28T18:27:30.084Z,10.38
2022-11-28T18:29:57.193Z,10.60
2022-11-28T18:32:24.562Z,9.50
2022-11-28T18:34:53.056Z,9.32
2022-11-28T18:37:20.219Z,9.73
2022-11-28T18:39:47.355Z,9.38
2022-11-28T18:42:14.562Z,10.00
2022-11-28T18:44:41.749Z,9.20
2022-11-28T18:47:08.806Z,9.40
2022-11-28T18:49:35.946Z,9.15
2022-11-28T18:52:03.080Z,9.32
2022-11-28T18:54:32.323Z,8.52
2022-11-28T18:57:00.131Z,8.73
2022-11-28T18:59:27.286Z,8.95
2022-11-28T19:01:54.439Z,9.50
2022-11-28T19:04:21.608Z,8.32
2022-11-28T19:06:48.742Z,8.13
2022-11-28T19:09:17.007Z,8.85
2022-11-28T19:11:45.878Z,8.63
2022-11-28T19:14:17.064Z,7.88
2022-11-28T19:16:45.148Z,7.93
2022-11-28T19:19:12.417Z,7.78
2022-11-28T19:21:39.636Z,8.95
2022-11-28T19:24:08.465Z,7.93
2022-11-28T19:26:37.325Z,7.68
2022-11-28T19:29:06.580Z,8.20
2022-11-28T19:31:34.831Z,7.85
2022-11-28T19:34:08.232Z,8.90
2022-11-28T19:36:37.334Z,7.68
2022-11-28T19:39:04.644Z,7.88
2022-11-28T19:41:32.322Z,7.95
2022-11-28T19:43:59.545Z,7.47
2022-11-28T19:46:31.930Z,7.60
2022-11-28T19:49:02.477Z,6.95
2022-11-28T19:51:29.579Z,7.25
2022-11-28T19:54:02.708Z,8.13
2022-11-28T19:56:31.359Z,6.30
2022-11-28T19:58:58.935Z,7.32
2022-11-28T20:01:26.574Z,6.70
2022-11-28T20:03:53.877Z,6.75
2022-11-28T20:06:25.405Z,6.85
2022-11-28T20:08:53.343Z,7.10
2022-11-28T20:11:24.902Z,6.75
2022-11-28T20:14:02.480Z,6.57
2022-11-28T20:16:30.744Z,6.45
2022-11-28T20:18:58.209Z,6.55
2022-11-28T20:21:25.313Z,6.55
2022-11-28T20:23:53.672Z,6.32
2022-11-28T20:26:22.893Z,6.80
2022-11-28T20:29:09.918Z,6.65
2022-11-28T20:31:38.452Z,6.05
2022-11-28T20:34:06.566Z,6.70
2022-11-28T20:36:33.748Z,6.15
2022-11-28T20:39:00.863Z,6.47
2022-11-28T20:41:28.641Z,6.22
2022-11-28T20:43:55.822Z,6.20
2022-11-28T20:46:27.060Z,5.85
2022-11-28T20:48:56.510Z,5.75
2022-11-28T20:51:27.145Z,6.50
2022-11-28T20:53:54.922Z,5.68
2022-11-28T20:56:23.501Z,5.80
2022-11-28T20:58:50.849Z,6.00
2022-11-28T21:01:22.240Z,6.20
2022-11-28T21:03:49.870Z,5.65
2022-11-28T21:06:17.535Z,5.68
2022-11-28T21:08:44.697Z,5.47
2022-11-28T21:11:36.635Z,5.97
2022-11-28T21:14:04.621Z,5.85
2022-11-28T21:16:32.379Z,5.97
2022-11-28T21:19:02.723Z,5.50
2022-11-28T21:21:31.245Z,5.40
2022-11-28T21:24:03.173Z,5.50
2022-11-28T21:26:33.031Z,5.40
2022-11-28T21:29:04.184Z,4.65
2022-11-28T21:31:33.855Z,5.65
2022-11-28T21:34:01.381Z,4.93
2022-11-28T21:36:29.226Z,5.15
2022-11-28T21:38:57.914Z,5.38
2022-11-28T21:41:27.969Z,5.70
2022-11-28T21:43:55.454Z,5.60
2022-11-28T21:46:22.615Z,5.28
2022-11-28T21:48:49.869Z,4.93
2022-11-28T21:51:18.157Z,4.88
2022-11-28T21:53:45.757Z,5.15
2022-11-28T21:56:12.912Z,5.07
2022-11-28T21:58:40.314Z,5.03
2022-11-28T22:01:11.626Z,5.30
2022-11-28T22:03:39.531Z,4.88
2022-11-28T22:06:06.784Z,5.28
2022-11-28T22:08:34.130Z,5.15
2022-11-28T22:11:04.807Z,5.00
2022-11-28T22:13:32.911Z,4.85
2022-11-28T22:16:00.085Z,5.47
2022-11-28T22:18:29.573Z,4.72
2022-11-28T22:21:06.470Z,4.82
2022-11-28T22:23:37.113Z,5.10
2022-11-28T22:26:04.930Z,4.63
2022-11-28T22:28:32.612Z,5.13
2022-11-28T22:30:59.967Z,4.78
2022-11-28T22:33:27.054Z,5.00
2022-11-28T22:35:54.124Z,5.00
2022-11-28T22:38:21.220Z,4.88
2022-11-28T22:40:48.272Z,4.85
2022-11-28T22:43:15.341Z,4.88
2022-11-28T22:45:42.553Z,4.78
2022-11-28T22:48:10.043Z,4.95
2022-11-28T22:50:40.403Z,4.53
2022-11-28T22:53:07.586Z,4.80
2022-11-28T22:55:35.558Z,5.00
2022-11-28T22:58:02.673Z,5.28
2022-11-28T23:00:29.793Z,4.63
2022-11-28T23:02:57.022Z,4.95
2022-11-28T23:05:24.197Z,4.78
2022-11-28T23:07:51.345Z,4.78
2022-11-28T23:10:18.548Z,4.85
2022-11-28T23:12:45.659Z,4.50
2022-11-28T23:15:12.821Z,4.78
2022-11-28T23:17:41.073Z,4.65
2022-11-28T23:20:08.980Z,4.20
2022-11-28T23:22:36.056Z,4.85
2022-11-28T23:25:03.116Z,4.63
2022-11-28T23:27:30.240Z,4.72
2022-11-28T23:29:58.359Z,4.78
2022-11-28T23:32:25.479Z,5.30
2022-11-28T23:34:52.549Z,4.50
2022-11-28T23:37:19.710Z,4.43
2022-11-28T23:39:46.930Z,4.43
2022-11-28T23:42:14.039Z,4.13
2022-11-28T23:44:41.360Z,4.32
2022-11-28T23:47:08.707Z,4.35
2022-11-28T23:49:35.853Z,4.53
2022-11-28T23:52:02.892Z,4.20
2022-11-28T23:54:29.974Z,4.28
2022-11-28T23:56:57.082Z,4.60
2022-11-28T23:59:24.152Z,4.07
